Terminal Aerodrome Forecast
Issued by NWS

Home | Current Version | Previous Version | Text Only | Print | Product List | Glossary On
Versions: 1 2 3 4 5 6 7 8 9 10 11 12 13 14 15
000
FTUS43 KIND 262320
TAFBMG
TAF
KBMG 262320Z 2700/2724 16006KT P6SM SCT100 BKN250
      TEMPO 2710/2713 4SM BR
     FM271800 19009G16KT P6SM SCT050 BKN150
      AMD LTD TO CLD VIS AND WIND 2701/2713=

USA.gov is the U.S. government's official web portal to all federal, state and local government web resources and services.